Time;durP1;ratioP1;P1;durP2;ratioP2;P2;SDS_P1;SDS_P2;PMS_P1;PMS_P2;Temp;Humidity;BMP_temperature;BMP_pressure;BME280_temperature;BME280_humidity;BME280_pressure;Samples;Min_cycle;Max_cycle;Signal;HPM_P1;HPM_P2
2023/12/11 00:01:19;;;;;;;38.08;16.77;;;;;;;1.91;100.00;100696.31;4971789;28;20552;-72
2023/12/11 00:03:44;;;;;;;36.20;16.75;;;;;;;2.02;100.00;100708.97;4971331;28;20023;-72
2023/12/11 00:06:10;;;;;;;34.65;16.05;;;;;;;2.15;100.00;100720.97;4971383;28;20109;-72
2023/12/11 00:08:36;;;;;;;33.92;17.08;;;;;;;1.75;100.00;100634.88;4963407;28;20038;-72
2023/12/11 00:11:01;;;;;;;34.78;17.20;;;;;;;2.30;100.00;100714.47;4971257;28;20057;-73
2023/12/11 00:13:27;;;;;;;37.60;17.80;;;;;;;2.38;100.00;100721.03;4970939;28;20404;-73
2023/12/11 00:15:53;;;;;;;32.28;15.70;;;;;;;2.33;100.00;100716.34;4971450;28;20042;-73
2023/12/11 00:18:19;;;;;;;33.08;15.88;;;;;;;2.01;100.00;100653.75;4971353;28;20414;-72
2023/12/11 00:20:44;;;;;;;37.47;17.55;;;;;;;2.42;100.00;100720.47;4971309;28;20037;-73
2023/12/11 00:23:10;;;;;;;33.88;17.67;;;;;;;2.47;100.00;100717.34;4937073;28;20520;-73
2023/12/11 00:25:37;;;;;;;39.80;17.45;;;;;;;2.42;100.00;100722.13;4971368;28;20027;-72
2023/12/11 00:28:03;;;;;;;31.80;15.98;;;;;;;2.43;100.00;100717.16;4970850;28;20030;-72
2023/12/11 00:30:30;;;;;;;33.13;16.25;;;;;;;2.33;100.00;100693.41;4971461;28;20058;-73
2023/12/11 00:32:55;;;;;;;32.85;17.13;;;;;;;2.33;100.00;100699.41;4971086;28;20034;-73
2023/12/11 00:35:21;;;;;;;38.30;18.23;;;;;;;2.24;100.00;100686.91;4971330;28;20517;-73
2023/12/11 00:37:46;;;;;;;34.35;17.17;;;;;;;2.14;100.00;100670.81;4970983;28;20512;-74
2023/12/11 00:40:12;;;;;;;35.53;17.55;;;;;;;2.48;100.00;100720.03;4971003;28;20058;-73
2023/12/11 00:42:37;;;;;;;35.38;18.20;;;;;;;2.47;100.00;100735.19;4970772;28;20026;-74
2023/12/11 00:45:03;;;;;;;33.50;16.77;;;;;;;2.38;100.00;100718.47;4971150;28;20109;-72
2023/12/11 00:47:29;;;;;;;40.60;16.90;;;;;;;2.27;100.00;100724.44;4971024;28;20409;-73
2023/12/11 00:49:54;;;;;;;34.90;17.30;;;;;;;2.30;100.00;100732.28;4974220;28;20039;-74
2023/12/11 00:52:20;;;;;;;35.25;17.33;;;;;;;2.08;100.00;100692.50;4974311;28;20097;-72
2023/12/11 00:54:45;;;;;;;39.72;17.00;;;;;;;2.20;100.00;100724.75;4974599;28;20030;-72
2023/12/11 00:57:11;;;;;;;38.25;17.73;;;;;;;2.11;100.00;100724.97;4974434;28;20110;-73
2023/12/11 00:59:38;;;;;;;37.20;16.13;;;;;;;1.58;100.00;100641.22;4974586;28;20030;-72
2023/12/11 01:02:04;;;;;;;43.75;17.15;;;;;;;2.06;100.00;100733.91;4974651;28;20023;-73
2023/12/11 01:04:29;;;;;;;37.33;17.20;;;;;;;1.91;100.00;100733.66;4974838;28;20390;-73
2023/12/11 01:06:55;;;;;;;39.75;18.63;;;;;;;1.87;100.00;100727.44;4974785;28;20050;-73
2023/12/11 01:09:20;;;;;;;39.05;16.92;;;;;;;1.85;100.00;100738.28;4974521;28;20022;-73
2023/12/11 01:11:46;;;;;;;42.90;18.05;;;;;;;1.42;100.00;100672.22;4974098;28;20109;-73
2023/12/11 01:14:11;;;;;;;41.95;18.13;;;;;;;1.30;100.00;100656.94;4974438;28;20034;-72
2023/12/11 01:16:38;;;;;;;35.33;15.95;;;;;;;1.63;100.00;100733.19;4974134;28;20022;-72
2023/12/11 01:19:04;;;;;;;46.65;20.17;;;;;;;1.48;100.00;100712.53;4974413;28;20061;-73
2023/12/11 01:21:29;;;;;;;43.72;19.30;;;;;;;1.51;100.00;100723.84;4974064;28;20039;-73
2023/12/11 01:23:55;;;;;;;41.03;19.75;;;;;;;1.55;100.00;100730.06;4973976;28;20038;-72
2023/12/11 01:26:20;;;;;;;42.30;19.48;;;;;;;1.38;100.00;100714.34;4923898;28;20047;-73
2023/12/11 01:28:46;;;;;;;38.63;18.63;;;;;;;1.58;100.00;100736.28;4974230;28;20093;-72
2023/12/11 01:31:11;;;;;;;44.63;18.92;;;;;;;1.47;100.00;100724.38;4973853;28;20408;-73
2023/12/11 01:33:37;;;;;;;47.72;20.58;;;;;;;1.54;100.00;100726.59;4974060;28;20065;-72
2023/12/11 01:36:02;;;;;;;48.60;21.70;;;;;;;1.39;100.00;100694.91;4973857;28;20105;-73
2023/12/11 01:38:28;;;;;;;47.88;21.30;;;;;;;1.53;100.00;100727.38;4974049;28;20046;-72
2023/12/11 01:40:54;;;;;;;44.75;20.13;;;;;;;1.39;100.00;100705.09;4973239;28;20061;-72
2023/12/11 01:43:20;;;;;;;47.08;20.02;;;;;;;1.43;100.00;100719.81;4974296;28;20493;-72
2023/12/11 01:46:13;;;;;;;39.90;19.55;;;;;;;1.50;100.00;100722.06;4956340;28;20027;-72
2023/12/11 01:48:39;;;;;;;42.42;19.83;;;;;;;1.37;100.00;100697.34;4951628;29;20445;-73
2023/12/11 01:51:09;;;;;;;38.58;16.38;;;;;;;1.33;100.00;100705.47;4951778;29;20122;-73
2023/12/11 01:53:35;;;;;;;40.33;19.50;;;;;;;1.43;100.00;100719.81;4951854;29;20039;-73
2023/12/11 01:56:01;;;;;;;46.17;20.50;;;;;;;1.51;100.00;100717.84;4951992;29;20035;-72
2023/12/11 01:58:29;;;;;;;46.10;21.52;;;;;;;1.51;100.00;100722.94;4951705;29;20066;-73
2023/12/11 02:00:55;;;;;;;41.78;20.15;;;;;;;1.17;100.00;100637.28;4950700;28;20039;-73
2023/12/11 02:03:22;;;;;;;40.72;19.00;;;;;;;1.70;100.00;100715.94;4951787;29;20038;-72
2023/12/11 02:05:49;;;;;;;43.92;20.75;;;;;;;1.75;100.00;100711.22;4904309;29;20054;-72
2023/12/11 02:08:16;;;;;;;45.28;21.27;;;;;;;1.80;100.00;100702.28;4951756;29;20032;-73
2023/12/11 02:10:41;;;;;;;42.03;20.95;;;;;;;1.87;100.00;100698.53;4951543;29;20039;-73
2023/12/11 02:13:07;;;;;;;43.78;19.95;;;;;;;1.99;100.00;100702.00;4951638;29;20054;-73
2023/12/11 02:15:44;;;;;;;45.45;20.55;;;;;;;1.68;100.00;100615.69;4951674;29;20043;-72
2023/12/11 02:18:11;;;;;;;41.38;20.83;;;;;;;2.18;100.00;100675.34;4951116;29;20051;-73
2023/12/11 02:20:38;;;;;;;38.45;19.60;;;;;;;2.26;100.00;100681.91;4951312;29;20035;-72
2023/12/11 02:23:08;;;;;;;39.65;19.73;;;;;;;2.16;100.00;100646.34;4951504;29;20047;-72
2023/12/11 02:25:35;;;;;;;39.42;19.17;;;;;;;2.31;100.00;100656.78;4963549;28;20093;-72
2023/12/11 02:28:02;;;;;;;39.50;18.92;;;;;;;2.44;100.00;100684.91;4973043;28;20027;-73
2023/12/11 02:30:30;;;;;;;42.35;20.35;;;;;;;2.24;100.00;100646.13;4955679;28;20027;-73
2023/12/11 02:32:55;;;;;;;42.63;22.33;;;;;;;2.08;100.00;100623.75;4972525;28;20027;-73
2023/12/11 02:35:21;;;;;;;39.78;19.50;;;;;;;2.36;100.00;100669.06;4973458;28;20053;-73
2023/12/11 02:37:46;;;;;;;40.42;19.13;;;;;;;2.48;100.00;100683.47;4973384;28;20034;-73
2023/12/11 02:40:12;;;;;;;42.05;19.13;;;;;;;2.52;100.00;100681.25;4973030;28;20031;-74
2023/12/11 02:42:37;;;;;;;40.17;19.85;;;;;;;2.54;100.00;100673.72;4973084;28;20026;-73
2023/12/11 02:45:04;;;;;;;38.50;18.77;;;;;;;2.57;100.00;100686.69;4973047;28;20041;-73
2023/12/11 02:47:29;;;;;;;39.63;20.02;;;;;;;2.35;100.00;100654.53;4973002;28;20069;-73
2023/12/11 02:49:55;;;;;;;42.55;20.08;;;;;;;2.40;100.00;100677.81;4973054;28;20070;-73
2023/12/11 02:52:20;;;;;;;42.88;20.75;;;;;;;2.40;100.00;100695.66;4973156;28;20035;-73
2023/12/11 02:54:46;;;;;;;40.70;20.13;;;;;;;2.39;100.00;100684.59;4972922;28;20103;-73
2023/12/11 02:57:11;;;;;;;46.45;22.10;;;;;;;2.41;100.00;100689.78;4972910;28;20066;-73
2023/12/11 02:59:37;;;;;;;44.20;22.02;;;;;;;2.37;100.00;100690.34;4972752;28;20030;-73
2023/12/11 03:02:03;;;;;;;40.58;21.48;;;;;;;2.29;100.00;100683.78;4972704;28;20062;-73
2023/12/11 03:04:28;;;;;;;41.28;20.63;;;;;;;2.26;100.00;100687.88;4973152;28;20037;-73
2023/12/11 03:06:54;;;;;;;46.88;21.50;;;;;;;2.27;100.00;100678.59;4972647;28;20038;-73
2023/12/11 03:09:20;;;;;;;49.08;21.58;;;;;;;2.33;100.00;100678.13;4955440;28;20031;-73
2023/12/11 03:11:45;;;;;;;40.33;19.75;;;;;;;2.35;100.00;100684.25;4972429;28;20501;-73
2023/12/11 03:14:11;;;;;;;43.25;19.40;;;;;;;2.36;100.00;100681.78;4972468;28;20045;-73
2023/12/11 03:16:36;;;;;;;44.65;20.55;;;;;;;2.35;100.00;100669.81;4972333;28;20035;-74
2023/12/11 03:19:02;;;;;;;43.55;20.77;;;;;;;2.39;100.00;100668.41;4972496;28;20105;-74
2023/12/11 03:21:27;;;;;;;48.97;20.92;;;;;;;2.41;100.00;100682.13;4972472;28;20456;-73
2023/12/11 03:23:53;;;;;;;48.88;22.83;;;;;;;2.43;100.00;100690.78;4972440;28;20493;-73
2023/12/11 03:26:18;;;;;;;43.10;21.23;;;;;;;2.04;100.00;100621.72;4972494;28;20030;-73
2023/12/11 03:28:44;;;;;;;49.20;22.67;;;;;;;2.39;100.00;100692.22;4972757;28;20503;-73
2023/12/11 03:31:10;;;;;;;44.78;20.77;;;;;;;2.36;100.00;100698.75;4972193;28;20039;-73
2023/12/11 03:33:35;;;;;;;48.10;21.13;;;;;;;2.35;100.00;100690.22;4972171;28;20413;-73
2023/12/11 03:36:01;;;;;;;45.83;21.05;;;;;;;2.42;100.00;100706.84;4955055;28;20034;-74
2023/12/11 03:38:26;;;;;;;49.78;22.60;;;;;;;2.32;100.00;100687.44;4972305;28;20039;-73
2023/12/11 03:40:52;;;;;;;45.03;22.27;;;;;;;2.41;100.00;100711.03;4972092;28;20069;-73
2023/12/11 03:43:17;;;;;;;44.17;22.38;;;;;;;2.41;100.00;100700.84;4972250;28;20034;-74
2023/12/11 03:45:42;;;;;;;48.95;22.33;;;;;;;2.10;100.00;100641.69;4972105;28;20190;-73
2023/12/11 03:48:08;;;;;;;47.28;22.38;;;;;;;2.46;100.00;100713.06;4968881;28;20042;-73
2023/12/11 03:50:33;;;;;;;47.47;22.85;;;;;;;2.49;100.00;100719.25;4972149;28;20038;-73
2023/12/11 03:52:59;;;;;;;49.35;23.55;;;;;;;2.48;100.00;100716.59;4972145;28;20493;-73
2023/12/11 03:55:25;;;;;;;48.40;22.90;;;;;;;2.35;100.00;100710.59;4937838;28;20133;-73
2023/12/11 03:57:50;;;;;;;52.22;23.73;;;;;;;2.47;100.00;100735.19;4971854;28;20064;-73
2023/12/11 04:00:16;;;;;;;59.25;25.20;;;;;;;2.49;100.00;100743.84;4971762;28;20033;-74
2023/12/11 04:02:42;;;;;;;50.78;23.83;;;;;;;2.23;100.00;100702.03;4972126;28;20026;-73
2023/12/11 04:05:08;;;;;;;52.42;23.85;;;;;;;2.46;100.00;100746.19;4971917;28;20397;-73
2023/12/11 04:07:34;;;;;;;45.85;21.00;;;;;;;2.44;100.00;100748.59;4971854;28;20676;-73
2023/12/11 04:09:59;;;;;;;47.90;23.42;;;;;;;2.44;100.00;100746.06;4971803;28;20050;-73
2023/12/11 04:12:25;;;;;;;50.78;23.38;;;;;;;2.00;100.00;100664.69;4971812;28;20039;-73
2023/12/11 04:14:50;;;;;;;49.78;25.73;;;;;;;2.37;100.00;100742.19;4972045;28;20034;-73
2023/12/11 04:17:16;;;;;;;52.95;24.33;;;;;;;2.39;100.00;100748.28;4971637;28;20043;-73
2023/12/11 04:19:41;;;;;;;52.53;24.98;;;;;;;2.23;100.00;100730.06;4971705;28;20086;-73
2023/12/11 04:22:07;;;;;;;54.50;23.17;;;;;;;2.34;100.00;100757.22;4971744;28;20070;-73
2023/12/11 04:24:32;;;;;;;49.13;24.58;;;;;;;2.29;100.00;100753.44;4974141;28;20034;-73
2023/12/11 04:26:57;;;;;;;47.40;23.02;;;;;;;2.22;100.00;100749.56;4975634;28;20074;-73
2023/12/11 04:29:23;;;;;;;51.33;22.85;;;;;;;2.20;100.00;100750.22;4975570;28;20477;-73
2023/12/11 04:31:48;;;;;;;48.03;22.90;;;;;;;2.04;100.00;100749.06;4975455;28;20034;-73
2023/12/11 04:34:14;;;;;;;48.65;20.90;;;;;;;2.08;100.00;100762.91;4975677;28;20110;-73
2023/12/11 04:36:43;;;;;;;45.35;23.60;;;;;;;1.72;100.00;100704.25;4975666;28;20022;-73
2023/12/11 04:39:09;;;;;;;51.55;23.48;;;;;;;1.99;100.00;100750.38;4975510;28;20038;-73
2023/12/11 04:41:35;;;;;;;48.05;21.80;;;;;;;1.92;100.00;100778.72;4957926;28;20039;-73
2023/12/11 04:44:00;;;;;;;45.10;21.75;;;;;;;1.87;100.00;100762.16;4975221;28;20110;-73
2023/12/11 04:46:25;;;;;;;51.55;23.50;;;;;;;1.87;100.00;100774.91;4975287;28;20031;-73
2023/12/11 04:48:51;;;;;;;46.85;22.80;;;;;;;1.92;100.00;100776.16;4975405;28;20059;-73
2023/12/11 04:51:16;;;;;;;44.83;22.52;;;;;;;1.93;100.00;100771.19;4975202;28;20034;-73
2023/12/11 04:53:42;;;;;;;50.17;24.60;;;;;;;1.96;100.00;100774.72;4975290;28;20035;-73
2023/12/11 04:56:08;;;;;;;48.88;23.17;;;;;;;1.94;100.00;100775.50;4975126;28;20454;-73
2023/12/11 04:58:33;;;;;;;47.25;22.20;;;;;;;1.76;100.00;100781.72;4975041;28;20466;-73
2023/12/11 05:00:59;;;;;;;50.47;24.67;;;;;;;1.73;100.00;100782.38;4975438;28;20062;-73
2023/12/11 05:03:24;;;;;;;44.22;20.95;;;;;;;1.59;100.00;100782.97;4974967;28;20473;-73
2023/12/11 05:05:50;;;;;;;43.00;20.58;;;;;;;1.40;100.00;100778.97;4975053;28;20051;-73
2023/12/11 05:08:15;;;;;;;46.33;21.45;;;;;;;1.35;100.00;100771.75;4974617;28;20035;-73
2023/12/11 05:10:41;;;;;;;36.42;19.27;;;;;;;0.78;100.00;100682.56;4975066;28;20035;-73
2023/12/11 05:13:07;;;;;;;42.67;19.58;;;;;;;1.30;100.00;100776.47;4974810;28;20038;-73
2023/12/11 05:15:33;;;;;;;47.10;20.52;;;;;;;1.36;100.00;100770.97;4974766;28;20093;-72
2023/12/11 05:17:58;;;;;;;45.10;19.17;;;;;;;1.32;100.00;100774.97;4974942;28;20050;-73
2023/12/11 05:20:24;;;;;;;48.65;21.58;;;;;;;1.32;100.00;100764.78;4974847;28;20047;-73
2023/12/11 05:22:49;;;;;;;42.80;20.52;;;;;;;1.30;100.00;100776.47;4974761;28;20038;-73
2023/12/11 05:25:15;;;;;;;43.10;20.30;;;;;;;1.34;100.00;100775.94;4940480;28;20042;-73
2023/12/11 05:27:40;;;;;;;42.83;20.58;;;;;;;1.16;100.00;100759.22;4974588;28;20561;-73
2023/12/11 05:30:07;;;;;;;46.90;23.92;;;;;;;1.28;100.00;100760.19;4974332;28;20038;-73
2023/12/11 05:32:32;;;;;;;64.22;27.77;;;;;;;1.37;100.00;100781.28;4974446;28;20031;-73
2023/12/11 05:34:58;;;;;;;52.85;25.13;;;;;;;1.04;100.00;100737.16;4974249;28;20113;-73
2023/12/11 05:37:23;;;;;;;50.55;23.25;;;;;;;1.30;100.00;100789.19;4974429;28;20023;-73
2023/12/11 05:39:49;;;;;;;46.45;21.65;;;;;;;1.29;100.00;100792.50;4974400;28;20035;-73
2023/12/11 05:42:14;;;;;;;44.20;21.30;;;;;;;1.24;100.00;100793.78;4974390;28;20090;-73
2023/12/11 05:44:40;;;;;;;49.58;21.63;;;;;;;1.11;100.00;100781.78;4974136;28;20058;-73
2023/12/11 05:47:05;;;;;;;44.40;20.90;;;;;;;1.01;100.00;100772.53;4974232;28;20035;-72
2023/12/11 05:49:31;;;;;;;44.80;20.92;;;;;;;1.21;100.00;100801.16;4974623;28;20095;-73
2023/12/11 05:51:56;;;;;;;45.33;19.98;;;;;;;1.17;100.00;100797.50;4974195;28;20490;-73
2023/12/11 05:54:22;;;;;;;48.70;21.77;;;;;;;0.71;100.00;100710.84;4974095;28;20038;-73
2023/12/11 05:56:47;;;;;;;41.25;20.02;;;;;;;1.04;100.00;100780.38;4956631;28;20077;-72
2023/12/11 05:59:13;;;;;;;45.53;22.33;;;;;;;1.26;100.00;100802.44;4974210;28;20030;-72
2023/12/11 06:01:38;;;;;;;51.08;22.25;;;;;;;1.33;100.00;100809.78;4974123;28;20094;-72
2023/12/11 06:04:04;;;;;;;50.90;22.73;;;;;;;1.42;100.00;100814.69;4940149;28;20094;-73
2023/12/11 06:06:29;;;;;;;47.08;20.50;;;;;;;1.32;100.00;100807.13;4956628;28;20034;-73
2023/12/11 06:08:55;;;;;;;45.28;20.90;;;;;;;1.27;100.00;100799.09;4973935;28;20049;-73
2023/12/11 06:11:21;;;;;;;46.13;19.95;;;;;;;1.37;100.00;100816.91;4973756;28;20108;-73
2023/12/11 06:13:46;;;;;;;46.70;23.08;;;;;;;1.33;100.00;100784.34;4973604;28;20082;-73
2023/12/11 06:16:13;;;;;;;50.47;21.88;;;;;;;1.35;100.00;100793.00;4973931;28;20031;-73
2023/12/11 06:18:39;;;;;;;46.08;22.23;;;;;;;1.49;100.00;100814.41;4973765;28;20500;-73
2023/12/11 06:21:04;;;;;;;48.30;21.50;;;;;;;1.41;100.00;100805.31;4973540;28;20043;-73
2023/12/11 06:23:30;;;;;;;48.22;21.80;;;;;;;1.44;100.00;100808.09;4973695;28;20041;-75
2023/12/11 06:25:56;;;;;;;45.22;22.48;;;;;;;1.24;100.00;100759.06;4973548;28;20106;-74
2023/12/11 06:28:21;;;;;;;46.70;21.20;;;;;;;1.66;100.00;100808.13;4971557;28;20027;-74
2023/12/11 06:30:47;;;;;;;43.33;21.02;;;;;;;1.77;100.00;100808.97;4955467;28;20050;-74
2023/12/11 06:33:12;;;;;;;45.90;21.20;;;;;;;1.73;100.00;100802.75;4923219;28;20507;-73
2023/12/11 06:35:38;;;;;;;40.30;20.27;;;;;;;1.58;100.00;100820.25;4973195;28;20030;-72
2023/12/11 06:38:03;;;;;;;44.75;21.55;;;;;;;1.62;100.00;100813.75;4972869;28;20038;-72
2023/12/11 06:40:29;;;;;;;42.80;21.10;;;;;;;1.43;100.00;100803.75;4973218;28;20413;-72
2023/12/11 06:42:54;;;;;;;47.53;21.02;;;;;;;0.94;100.00;100717.72;4972390;28;20037;-72
2023/12/11 06:45:20;;;;;;;43.42;21.42;;;;;;;0.80;100.00;100731.88;4972921;28;20035;-71
2023/12/11 06:47:45;;;;;;;49.25;23.73;;;;;;;1.34;100.00;100798.84;4955001;28;20033;-72
2023/12/11 06:50:12;;;;;;;42.90;19.80;;;;;;;1.48;100.00;100794.81;4972875;28;20031;-72
2023/12/11 06:52:37;;;;;;;44.22;19.95;;;;;;;1.40;100.00;100766.25;4954631;28;20047;-71
2023/12/11 06:55:04;;;;;;;43.75;20.88;;;;;;;1.53;100.00;100774.84;4972557;28;20027;-72
2023/12/11 06:57:29;;;;;;;47.20;22.67;;;;;;;1.70;100.00;100797.41;4938359;28;20512;-72
2023/12/11 06:59:55;;;;;;;46.70;22.00;;;;;;;1.58;100.00;100786.25;4972193;28;20034;-71
2023/12/11 07:02:20;;;;;;;46.80;21.00;;;;;;;1.60;100.00;100785.63;4972464;28;20058;-72
2023/12/11 07:04:46;;;;;;;43.80;21.17;;;;;;;1.60;100.00;100810.19;4972937;28;20396;-73
2023/12/11 07:07:11;;;;;;;59.80;29.75;;;;;;;1.57;100.00;100771.75;4972535;28;20030;-73
2023/12/11 07:09:38;;;;;;;51.72;24.92;;;;;;;1.77;100.00;100797.13;4972440;28;20050;-72
2023/12/11 07:12:04;;;;;;;46.65;22.50;;;;;;;1.75;100.00;100788.47;4971599;28;20089;-71
2023/12/11 07:14:29;;;;;;;40.92;19.92;;;;;;;1.29;100.00;100736.53;4972372;28;20038;-71
2023/12/11 07:16:55;;;;;;;48.88;20.90;;;;;;;1.55;100.00;100791.13;4972571;28;20126;-72
2023/12/11 07:19:20;;;;;;;49.22;21.77;;;;;;;1.25;100.00;100720.16;4972475;28;20109;-73
2023/12/11 07:21:46;;;;;;;49.88;22.73;;;;;;;1.59;100.00;100777.88;4972361;28;20034;-73
2023/12/11 07:24:11;;;;;;;51.20;27.02;;;;;;;1.50;100.00;100739.00;4972251;28;20465;-73
2023/12/11 07:26:37;;;;;;;51.58;26.63;;;;;;;1.57;100.00;100749.75;4971871;28;20038;-72
2023/12/11 07:29:04;;;;;;;51.35;25.98;;;;;;;1.58;100.00;100733.72;4971845;28;20018;-79
2023/12/11 07:31:29;;;;;;;42.67;22.48;;;;;;;2.03;100.00;100797.34;4955230;28;20031;-73
2023/12/11 07:33:55;;;;;;;47.78;23.65;;;;;;;2.11;100.00;100803.91;4971841;28;20386;-74
2023/12/11 07:36:21;;;;;;;50.80;24.15;;;;;;;1.65;100.00;100729.13;4971685;28;20090;-72
2023/12/11 07:38:47;;;;;;;50.50;23.58;;;;;;;1.94;100.00;100808.59;4971908;28;20030;-73
2023/12/11 07:41:19;;;;;;;48.05;24.48;;;;;;;1.94;100.00;100803.53;4971480;28;20543;-73
2023/12/11 07:43:44;;;;;;;49.60;23.75;;;;;;;1.88;100.00;100789.41;4971988;28;20058;-72
2023/12/11 07:46:18;;;;;;;49.53;22.70;;;;;;;1.61;100.00;100725.44;4972297;28;20058;-72
2023/12/11 07:48:44;;;;;;;44.58;21.00;;;;;;;1.86;100.00;100783.34;4971797;28;20022;-72
2023/12/11 07:51:20;;;;;;;42.20;19.27;;;;;;;1.22;100.00;100716.47;4971636;28;20038;-72
2023/12/11 07:53:47;;;;;;;48.22;22.00;;;;;;;1.47;100.00;100752.38;4971291;28;20030;-72
2023/12/11 07:56:23;;;;;;;44.17;21.50;;;;;;;1.65;100.00;100788.53;4971447;28;20034;-72
2023/12/11 07:58:52;;;;;;;44.22;21.10;;;;;;;1.64;100.00;100791.84;4937395;28;20035;-72
2023/12/11 08:01:18;;;;;;;49.47;21.10;;;;;;;1.67;100.00;100791.19;4971765;28;20405;-71
2023/12/11 08:03:44;;;;;;;43.85;20.85;;;;;;;1.76;100.00;100787.69;4971254;28;20381;-72
2023/12/11 08:06:10;;;;;;;48.00;21.83;;;;;;;1.73;100.00;100791.66;4971646;28;20030;-72
2023/12/11 08:08:43;;;;;;;42.38;20.55;;;;;;;1.73;100.00;100789.13;4971333;28;20038;-72
2023/12/11 08:11:21;;;;;;;49.17;21.80;;;;;;;1.82;100.00;100796.56;4971532;28;20143;-72
2023/12/11 08:13:48;;;;;;;49.07;22.57;;;;;;;1.76;100.00;100805.50;4971163;28;20034;-72
2023/12/11 08:16:14;;;;;;;46.22;22.20;;;;;;;1.76;100.00;100805.50;4971818;28;20077;-71
2023/12/11 08:18:41;;;;;;;50.13;22.45;;;;;;;1.62;100.00;100788.31;4970557;28;20149;-72
2023/12/11 08:21:07;;;;;;;44.47;20.48;;;;;;;1.64;100.00;100806.22;4971350;28;20054;-71
2023/12/11 08:23:32;;;;;;;45.10;19.77;;;;;;;1.75;100.00;100806.28;4971249;28;20421;-72
2023/12/11 08:25:58;;;;;;;47.75;22.08;;;;;;;1.83;100.00;100794.13;4971646;28;20053;-72
2023/12/11 08:28:23;;;;;;;43.30;20.58;;;;;;;1.83;100.00;100768.69;4954000;28;20023;-72
2023/12/11 08:30:49;;;;;;;51.08;22.55;;;;;;;2.03;100.00;100780.41;4971257;28;20121;-72
2023/12/11 08:33:14;;;;;;;52.28;21.92;;;;;;;2.01;100.00;100776.84;4971065;28;20107;-71
2023/12/11 08:35:40;;;;;;;47.20;23.63;;;;;;;2.18;100.00;100777.22;4971552;28;20035;-72
2023/12/11 08:38:05;;;;;;;52.53;26.60;;;;;;;2.30;100.00;100775.59;4971194;28;20086;-72
2023/12/11 08:40:32;;;;;;;54.10;23.42;;;;;;;2.38;100.00;100781.28;4954016;28;20445;-72
2023/12/11 08:42:58;;;;;;;48.85;25.33;;;;;;;2.47;100.00;100788.72;4971106;28;20033;-72
2023/12/11 08:45:24;;;;;;;48.42;22.75;;;;;;;2.43;100.00;100770.66;4971658;28;20030;-72
2023/12/11 08:47:49;;;;;;;43.63;22.02;;;;;;;2.39;100.00;100781.41;4970531;28;20037;-72
2023/12/11 08:50:16;;;;;;;44.35;22.10;;;;;;;2.17;100.00;100765.25;4971592;28;20039;-72
2023/12/11 08:52:43;;;;;;;46.33;23.85;;;;;;;1.96;100.00;100709.41;4971011;28;20404;-72
2023/12/11 08:55:09;;;;;;;45.22;22.83;;;;;;;2.34;100.00;100779.28;4970911;28;20035;-72
2023/12/11 08:57:35;;;;;;;49.85;24.50;;;;;;;2.28;100.00;100779.72;4970720;28;20027;-72
2023/12/11 09:00:03;;;;;;;50.22;25.55;;;;;;;2.33;100.00;100795.31;4971390;28;20403;-72
2023/12/11 09:02:29;;;;;;;45.03;20.40;;;;;;;1.83;100.00;100714.34;4970536;28;20034;-71
2023/12/11 09:04:54;;;;;;;54.13;29.05;;;;;;;2.21;100.00;100785.13;4970720;28;20031;-72
2023/12/11 09:07:41;;;;;;;47.10;24.10;;;;;;;1.95;100.00;100717.81;4970824;28;20109;-72
2023/12/11 09:10:08;;;;;;;50.00;23.73;;;;;;;2.43;100.00;100775.75;4950332;28;20035;-72
2023/12/11 09:12:35;;;;;;;45.85;23.25;;;;;;;2.46;100.00;100743.66;4952980;29;20050;-72
2023/12/11 09:15:01;;;;;;;49.60;22.90;;;;;;;2.51;100.00;100749.97;4952315;29;20532;-72
2023/12/11 09:17:26;;;;;;;47.47;21.63;;;;;;;2.43;100.00;100724.78;4952920;29;20125;-72
2023/12/11 09:19:52;;;;;;;43.28;21.15;;;;;;;2.52;100.00;100739.88;4952534;29;20859;-72
2023/12/11 09:22:17;;;;;;;42.40;20.98;;;;;;;2.54;100.00;100742.53;4952706;29;20046;-72
2023/12/11 09:24:43;;;;;;;43.17;21.23;;;;;;;2.53;100.00;100738.19;4952116;29;20051;-72
2023/12/11 09:27:08;;;;;;;47.72;21.50;;;;;;;2.53;100.00;100756.03;4952870;29;20167;-72
2023/12/11 09:29:34;;;;;;;44.17;21.60;;;;;;;2.42;100.00;100753.59;4952050;29;20047;-74
2023/12/11 09:32:00;;;;;;;44.17;21.55;;;;;;;2.33;100.00;100752.03;4952702;29;20054;-72
2023/12/11 09:34:25;;;;;;;45.83;23.00;;;;;;;2.35;100.00;100760.69;4952165;29;20066;-72
2023/12/11 09:36:51;;;;;;;47.53;21.88;;;;;;;2.06;100.00;100694.03;4920439;29;20045;-73
2023/12/11 09:39:16;;;;;;;40.10;20.55;;;;;;;2.47;100.00;100753.03;4952485;29;20114;-73
2023/12/11 09:41:44;;;;;;;42.00;20.55;;;;;;;2.19;100.00;100728.06;4968545;28;20039;-73
2023/12/11 09:44:10;;;;;;;44.80;21.80;;;;;;;2.37;100.00;100746.41;4956380;28;20456;-72
2023/12/11 09:46:51;;;;;;;43.55;22.00;;;;;;;2.42;100.00;100752.72;4974030;28;20115;-73
2023/12/11 09:49:18;;;;;;;40.78;20.20;;;;;;;2.21;100.00;100680.69;4973891;28;20427;-71
2023/12/11 09:51:43;;;;;;;43.90;22.13;;;;;;;2.66;100.00;100737.47;4974143;28;20115;-73
2023/12/11 09:54:09;;;;;;;45.22;22.48;;;;;;;2.74;100.00;100732.13;4973833;28;20122;-73
2023/12/11 09:56:34;;;;;;;44.22;22.92;;;;;;;2.76;100.00;100729.69;4973662;28;20031;-75
2023/12/11 09:59:02;;;;;;;43.05;22.20;;;;;;;2.74;100.00;100716.84;4973371;28;20097;-70
2023/12/11 10:01:29;;;;;;;43.67;21.40;;;;;;;2.82;100.00;100742.88;4973637;28;20026;-73
2023/12/11 10:03:54;;;;;;;42.17;21.02;;;;;;;2.81;100.00;100746.22;4973831;28;20027;-71
2023/12/11 10:06:20;;;;;;;39.78;20.88;;;;;;;2.54;100.00;100699.19;4973647;28;20026;-72
2023/12/11 10:08:47;;;;;;;47.97;24.85;;;;;;;2.77;100.00;100735.66;4973875;28;20396;-72
2023/12/11 10:11:17;;;;;;;47.58;22.75;;;;;;;2.75;100.00;100744.13;4939180;28;20496;-72
2023/12/11 10:13:43;;;;;;;45.53;21.52;;;;;;;2.09;100.00;100605.16;4973477;28;20496;-72
2023/12/11 10:16:32;;;;;;;38.72;19.77;;;;;;;2.23;100.00;100644.34;4973368;28;20038;-72
2023/12/11 10:19:02;;;;;;;45.20;23.25;;;;;;;2.83;100.00;100751.41;4973270;28;20070;-72
2023/12/11 10:21:40;;;;;;;39.53;21.75;;;;;;;2.87;100.00;100739.00;4971937;28;20405;-72
2023/12/11 10:24:10;;;;;;;44.72;23.08;;;;;;;2.78;100.00;100730.69;4973040;28;20023;-72
2023/12/11 10:26:38;;;;;;;50.65;24.13;;;;;;;2.88;100.00;100725.47;4972838;28;20691;-72
2023/12/11 10:29:30;;;;;;;43.05;21.67;;;;;;;2.94;100.00;100714.84;4973439;28;20058;-72
2023/12/11 10:32:03;;;;;;;40.60;20.83;;;;;;;2.85;100.00;100694.63;4972605;28;20096;-72
2023/12/11 10:34:42;;;;;;;39.42;20.20;;;;;;;3.03;100.00;100709.50;4973382;28;20512;-72
2023/12/11 10:37:10;;;;;;;;;;;;;;;3.15;100.00;100712.03;4973347;28;20107;-72
2023/12/11 10:39:35;;;;;;;43.08;21.92;;;;;;;3.16;100.00;100703.59;4972928;28;19910;-73
2023/12/11 10:42:14;;;;;;;37.97;20.77;;;;;;;3.32;100.00;100715.78;4972854;28;20034;-72
2023/12/11 10:44:40;;;;;;;42.73;20.53;;;;;;;3.33;100.00;100715.00;4938398;28;20043;-72
2023/12/11 10:47:07;;;;;;;45.72;21.90;;;;;;;3.26;100.00;100711.09;4972924;28;20405;-72
2023/12/11 10:49:33;;;;;;;38.28;21.45;;;;;;;3.35;100.00;100714.31;4972996;28;20041;-72
2023/12/11 10:52:02;;;;;;;47.25;23.38;;;;;;;3.27;100.00;100689.94;4972982;28;20027;-72
2023/12/11 10:54:28;;;;;;;45.00;24.77;;;;;;;3.33;100.00;100713.31;4972324;28;20397;-71
2023/12/11 10:56:55;;;;;;;46.58;24.95;;;;;;;3.37;100.00;100717.84;4972551;28;20035;-72
2023/12/11 10:59:21;;;;;;;48.00;25.45;;;;;;;3.40;100.00;100715.53;4972720;28;20049;-72
2023/12/11 11:01:49;;;;;;;42.28;20.08;;;;;;;3.46;100.00;100719.28;4972454;28;20031;-72
2023/12/11 11:04:17;;;;;;;41.25;20.67;;;;;;;3.46;100.00;100714.19;4972751;28;20022;-72
2023/12/11 11:06:56;;;;;;;54.27;28.47;;;;;;;3.20;100.00;100632.50;4972347;28;20103;-73